Time;durP1;ratioP1;P1;durP2;ratioP2;P2;SDS_P1;SDS_P2;PMS_P1;PMS_P2;Temp;Humidity;BMP_temperature;BMP_pressure;BME280_temperature;BME280_humidity;BME280_pressure;Samples;Min_cycle;Max_cycle;Signal;HPM_P1;HPM_P2
2021/03/26 00:02:01;;;;;;;;;;;;;;;11.51;40.81;101374.31;5117551;28;20299;-82
2021/03/26 00:04:46;;;;;;;;;;;;;;;11.64;40.80;101364.50;5113549;28;19916;-80
2021/03/26 00:07:30;;;;;;;;;;;;;;;11.47;40.37;101372.53;5113844;28;19915;-82
2021/03/26 00:10:16;;;;;;;;;;;;;;;11.36;40.62;101373.84;5114491;28;19924;-82
2021/03/26 00:13:01;;;;;;;;;;;;;;;11.61;40.66;101373.28;5117699;28;19915;-82
2021/03/26 00:15:46;;;;;;;;;;;;;;;11.44;40.76;101362.22;5112570;28;19923;-81
2021/03/26 00:18:30;;;;;;;;;;;;;;;11.32;41.00;101370.13;5112370;28;19916;-83
2021/03/26 00:21:16;;;;;;;;;;;;;;;11.34;40.78;101373.31;5114994;28;19916;-80
2021/03/26 00:24:01;;;;;;;;;;;;;;;11.29;40.83;101368.78;5114101;28;19916;-81
2021/03/26 00:26:46;;;;;;;;;;;;;;;11.15;41.08;101371.53;5117322;28;19920;-80
2021/03/26 00:29:31;;;;;;;;;;;;;;;11.25;40.85;101356.91;5114869;28;19935;-81
2021/03/26 00:32:15;;;;;;;;;;;;;;;11.12;41.23;101366.66;5113057;28;20399;-83
2021/03/26 00:35:00;;;;;;;;;;;;;;;11.13;41.08;101368.28;5111356;28;19916;-82
2021/03/26 00:37:45;;;;;;;;;;;;;;;11.12;40.92;101369.41;5111654;27;19937;-83
2021/03/26 00:40:30;;;;;;;;;;;;;;;11.09;41.56;101375.47;5103392;27;19916;-82
2021/03/26 00:43:19;;;;;;;;;;;;;;;10.89;41.92;101373.13;5100404;27;19916;-80
2021/03/26 00:46:04;;;;;;;;;;;;;;;10.94;41.94;101373.03;5112557;27;19916;-83
2021/03/26 00:48:49;;;;;;;;;;;;;;;10.92;41.98;101379.91;5104063;27;19916;-82
2021/03/26 00:51:34;;;;;;;;;;;;;;;10.93;41.52;101368.69;5099122;27;21306;-80
2021/03/26 00:54:21;;;;;;;;;;;;;;;10.81;41.51;101371.13;5102733;27;19924;-81
2021/03/26 00:57:05;;;;;;;;;;;;;;;10.82;41.79;101374.66;5113423;27;20391;-82
2021/03/26 00:59:50;;;;;;;;;;;;;;;10.67;42.57;101376.50;5108364;28;19916;-82
2021/03/26 01:02:35;;;;;;;;;;;;;;;10.55;42.70;101373.47;5109988;28;19935;-80
2021/03/26 01:05:40;;;;;;;;;;;;;;;10.88;42.41;101376.94;5113954;28;19916;-83
2021/03/26 01:08:25;;;;;;;;;;;;;;;10.87;42.51;101372.59;5113391;28;19923;-83
2021/03/26 01:11:16;;;;;;;;;;;;;;;10.80;42.33;101371.41;5115108;28;20303;-81
2021/03/26 01:14:01;;;;;;;;;;;;;;;10.60;43.07;101370.69;5115183;28;19915;-82
2021/03/26 01:16:46;;;;;;;;;;;;;;;10.55;42.77;101372.69;5109891;28;19924;-80
2021/03/26 01:19:32;;;;;;;;;;;;;;;10.35;43.46;101365.69;5111014;28;19920;-82
2021/03/26 01:22:17;;;;;;;;;;;;;;;10.51;43.62;101360.78;5103566;27;19924;-80
2021/03/26 01:25:05;;;;;;;;;;;;;;;10.56;43.45;101363.41;5104373;28;19916;-82
2021/03/26 01:27:54;;;;;;;;;;;;;;;10.32;43.70;101360.00;5111433;28;19916;-81
2021/03/26 01:30:40;;;;;;;;;;;;;;;10.15;44.29;101358.63;5117065;28;19919;-80
2021/03/26 01:33:25;;;;;;;;;;;;;;;10.25;43.91;101358.50;5105197;28;20391;-82
2021/03/26 01:36:09;;;;;;;;;;;;;;;9.93;45.00;101358.44;5113666;28;19919;-82
2021/03/26 01:38:54;;;;;;;;;;;;;;;10.15;44.28;101360.53;5113163;28;19915;-82
2021/03/26 01:41:41;;;;;;;;;;;;;;;10.10;44.39;101361.44;5110626;28;19923;-82
2021/03/26 01:44:33;;;;;;;;;;;;;;;9.98;44.81;101352.09;5105354;28;20299;-79
2021/03/26 01:47:27;;;;;;;;;;;;;;;9.90;45.07;101347.34;5112709;28;20375;-82
2021/03/26 01:50:14;;;;;;;;;;;;;;;9.79;45.47;101349.41;5104155;28;19916;-81
2021/03/26 01:52:59;;;;;;;;;;;;;;;9.87;45.06;101348.72;5112366;28;19920;-78
2021/03/26 01:55:45;;;;;;;;;;;;;;;9.99;45.51;101349.09;5106324;28;20307;-82
2021/03/26 01:58:32;;;;;;;;;;;;;;;10.00;45.84;101350.72;5108270;27;20296;-82
2021/03/26 02:01:22;;;;;;;;;;;;;;;10.00;44.94;101350.72;5102810;27;20399;-82
2021/03/26 02:04:09;;;;;;;;;;;;;;;10.04;45.81;101351.75;5122969;27;20291;-82
2021/03/26 02:06:55;;;;;;;;;;;;;;;10.04;45.68;101354.47;5114924;28;19935;-83
2021/03/26 02:09:41;;;;;;;;;;;;;;;10.18;45.90;101346.38;5111883;28;19920;-81
2021/03/26 02:12:27;;;;;;;;;;;;;;;10.28;45.02;101348.94;5109032;27;19924;-82
2021/03/26 02:15:14;;;;;;;;;;;;;;;9.95;45.98;101350.81;5108400;28;19916;-82
2021/03/26 02:18:00;;;;;;;;;;;;;;;10.03;45.87;101349.31;5120712;22;19924;-81
2021/03/26 02:20:47;;;;;;;;;;;;;;;9.86;46.29;101352.53;5091606;28;19920;-81
2021/03/26 02:23:37;;;;;;;;;;;;;;;9.69;46.77;101352.28;5083297;28;19916;-81
2021/03/26 02:26:29;;;;;;;;;;;;;;;9.73;47.20;101351.41;5102124;28;20148;-81
2021/03/26 02:29:27;;;;;;;;;;;;;;;9.93;46.44;101355.72;5117769;28;20303;-81
2021/03/26 02:32:25;;;;;;;;;;;;;;;9.65;47.08;101353.97;5111837;27;19920;-81
2021/03/26 02:35:17;;;;;;;;;;;;;;;9.88;47.50;101366.66;5101310;28;19916;-80
2021/03/26 02:38:15;;;;;;;;;;;;;;;9.96;47.63;101365.97;5103058;28;19924;-81
2021/03/26 02:41:13;;;;;;;;;;;;;;;9.99;47.28;101370.03;5118898;27;19916;-80
2021/03/26 02:44:09;;;;;;;;;;;;;;;10.22;47.26;101374.56;5114765;28;19915;-81
2021/03/26 02:47:23;;;;;;;;;;;;;;;9.96;46.43;101371.41;5124547;28;19916;-80
2021/03/26 02:50:40;;;;;;;;;;;;;;;10.33;46.66;101372.50;5099742;28;19916;-80
2021/03/26 02:53:28;;;;;;;;;;;;;;;10.31;45.79;101377.44;5115605;28;20299;-81
2021/03/26 02:56:17;;;;;;;;;;;;;;;10.08;45.54;101382.66;5101812;28;19915;-81
2021/03/26 02:59:10;;;;;;;;;;;;;;;10.15;45.16;101385.00;5103376;28;19916;-81
2021/03/26 03:02:00;;;;;;;;;;;;;;;10.11;45.07;101382.03;5114506;27;19920;-81
2021/03/26 03:05:11;;;;;;;;;;;;;;;10.19;45.31;101392.28;5110238;28;19919;-81
2021/03/26 03:08:01;;;;;;;;;;;;;;;9.82;46.19;101386.84;5104513;28;20319;-80
2021/03/26 03:10:58;;;;;;;;;;;;;;;10.02;45.55;101389.25;5094183;28;19920;-81
2021/03/26 03:13:48;;;;;;;;;;;;;;;9.99;46.43;101389.03;5094683;28;19923;-81
2021/03/26 03:16:32;;;;;;;;;;;;;;;10.14;46.47;101399.69;5105630;28;19915;-81
2021/03/26 03:19:23;;;;;;;;;;;;;;;9.96;46.52;101393.16;5102777;28;19916;-80
2021/03/26 03:22:14;;;;;;;;;;;;;;;10.03;46.40;101390.88;5122482;28;19915;-81
2021/03/26 03:25:03;;;;;;;;;;;;;;;10.07;47.55;101394.63;5102357;28;19927;-80
2021/03/26 03:28:06;;;;;;;;;;;;;;;9.97;47.30;101392.06;5119424;28;19919;-81
2021/03/26 03:30:57;;;;;;;;;;;;;;;10.05;47.42;101391.41;5117748;28;19923;-80
2021/03/26 03:33:48;;;;;;;;;;;;;;;10.21;46.48;101400.94;5106012;28;19916;-81
2021/03/26 03:36:52;;;;;;;;;;;;;;;10.15;47.36;101399.41;5117944;28;19915;-81
2021/03/26 03:40:04;;;;;;;;;;;;;;;10.04;47.70;101399.84;5120644;28;20372;-81
2021/03/26 03:42:59;;;;;;;;;;;;;;;9.93;47.87;101401.91;5105158;28;19919;-81
2021/03/26 03:45:56;;;;;;;;;;;;;;;10.03;47.41;101404.47;5121770;28;19916;-80
2021/03/26 03:49:10;;;;;;;;;;;;;;;10.02;47.00;101402.84;5114920;27;19916;-81
2021/03/26 03:52:01;;;;;;;;;;;;;;;9.92;47.32;101405.72;5122998;28;19919;-80
2021/03/26 03:55:18;;;;;;;;;;;;;;;9.96;46.75;101406.72;5104098;28;20372;-80
2021/03/26 03:58:06;;;;;;;;;;;;;;;10.02;46.17;101404.75;5082332;28;19916;-81
2021/03/26 04:00:55;;;;;;;;;;;;;;;10.02;46.06;101412.91;5114703;28;19915;-81
2021/03/26 04:04:13;;;;;;;;;;;;;;;9.91;46.25;101414.94;5107520;28;19916;-80
2021/03/26 04:07:03;;;;;;;;;;;;;;;9.91;46.58;101420.38;5074961;28;21441;-81
2021/03/26 04:09:52;;;;;;;;;;;;;;;9.92;46.15;101423.91;5099267;28;19916;-81
2021/03/26 04:12:38;;;;;;;;;;;;;;;9.91;46.54;101425.81;5119020;27;19920;-81
2021/03/26 04:15:47;;;;;;;;;;;;;;;9.82;46.66;101424.88;5103567;28;19916;-81
2021/03/26 04:18:41;;;;;;;;;;;;;;;9.74;46.56;101429.06;5119006;28;19915;-80
2021/03/26 04:21:55;;;;;;;;;;;;;;;9.85;47.28;101432.44;5108031;28;19916;-81
2021/03/26 04:25:05;;;;;;;;;;;;;;;9.86;46.36;101437.56;5113120;28;19915;-81
2021/03/26 04:28:02;;;;;;;;;;;;;;;9.65;46.66;101427.28;5118073;28;19916;-81
2021/03/26 04:30:57;;;;;;;;;;;;;;;9.71;47.22;101440.47;5112494;28;19915;-80
2021/03/26 04:34:05;;;;;;;;;;;;;;;9.61;46.89;101442.50;5121389;28;20380;-81
2021/03/26 04:36:56;;;;;;;;;;;;;;;9.55;46.97;101441.00;5115457;28;20423;-80
2021/03/26 04:40:12;;;;;;;;;;;;;;;9.58;47.26;101443.13;5115375;28;19920;-81
2021/03/26 04:43:16;;;;;;;;;;;;;;;9.67;47.24;101449.50;5100519;28;19923;-80
2021/03/26 04:46:01;;;;;;;;;;;;;;;9.30;48.10;101448.31;5118732;28;20307;-81
2021/03/26 04:49:11;;;;;;;;;;;;;;;9.34;46.98;101457.50;5117929;28;19924;-80
2021/03/26 04:52:33;;;;;;;;;;;;;;;9.44;47.15;101451.97;5116327;27;19924;-81
2021/03/26 04:55:26;;;;;;;;;;;;;;;9.54;46.71;101455.66;5095768;28;19938;-80
2021/03/26 04:58:18;;;;;;;;;;;;;;;9.43;46.72;101465.81;5117176;27;19915;-81
2021/03/26 05:01:27;;;;;;;;;;;;;;;9.15;46.68;101467.47;5094031;28;19916;-81
2021/03/26 05:04:24;;;;;;;;;;;;;;;9.06;46.59;101462.97;5121528;28;19919;-81
2021/03/26 05:07:13;;;;;;;;;;;;;;;9.22;47.98;101462.53;5096401;28;19920;-80
2021/03/26 05:10:01;;;;;;;;;;;;;;;9.01;48.63;101464.63;5098111;28;19916;-80
2021/03/26 05:13:40;;;;;;;;;;;;;;;8.80;48.90;101462.38;5111306;28;19920;-81
2021/03/26 05:16:33;;;;;;;;;;;;;;;8.74;49.16;101463.50;5104349;28;19923;-80
2021/03/26 05:19:54;;;;;;;;;;;;;;;8.79;49.24;101463.47;5121536;28;19915;-81
2021/03/26 05:22:38;;;;;;;;;;;;;;;8.70;48.06;101457.03;5102989;28;19915;-79
2021/03/26 05:25:45;;;;;;;;;;;;;;;8.88;49.11;101465.31;5090530;28;19915;-81
2021/03/26 05:28:41;;;;;;;;;;;;;;;9.00;48.53;101463.00;5118923;28;19916;-81
2021/03/26 05:31:39;;;;;;;;;;;;;;;9.04;47.75;101465.94;5099314;28;20401;-79
2021/03/26 05:34:33;;;;;;;;;;;;;;;9.09;47.91;101465.94;5101745;28;19915;-81
2021/03/26 05:37:18;;;;;;;;;;;;;;;9.02;47.17;101462.72;5098698;28;19916;-80
2021/03/26 05:40:25;;;;;;;;;;;;;;;8.84;47.71;101472.38;5116422;27;19923;-80
2021/03/26 05:43:48;;;;;;;;;;;;;;;8.32;48.96;101473.06;5046367;28;19916;-80
2021/03/26 05:46:49;;;;;;;;;;;;;;;8.44;48.97;101478.13;5114479;28;19927;-81
2021/03/26 05:50:19;;;;;;;;;;;;;;;8.69;48.06;101479.81;5117939;28;19915;-81
2021/03/26 05:53:16;;;;;;;;;;;;;;;8.63;49.11;101479.09;5116986;28;19919;-81
2021/03/26 05:56:37;;;;;;;;;;;;;;;8.86;48.55;101486.47;5101959;28;20383;-83
2021/03/26 05:59:45;;;;;;;;;;;;;;;8.84;47.85;101485.13;5113294;28;19923;-82
2021/03/26 06:02:32;;;;;;;;;;;;;;;9.08;48.54;101490.63;5117378;27;20583;-81
2021/03/26 06:05:55;;;;;;;;;;;;;;;9.05;48.01;101489.28;5107891;28;19924;-82
2021/03/26 06:08:58;;;;;;;;;;;;;;;9.05;48.85;101500.13;5109766;28;19920;-82
2021/03/26 06:12:21;;;;;;;;;;;;;;;9.42;48.33;101502.19;5111740;28;19920;-80
2021/03/26 06:15:44;;;;;;;;;;;;;;;9.50;46.93;101506.22;5110982;28;19916;-82
2021/03/26 06:18:59;;;;;;;;;;;;;;;9.67;46.74;101503.81;5110270;28;19916;-82
2021/03/26 06:22:24;;;;;;;;;;;;;;;9.95;46.80;101505.66;5114616;28;19916;-82
2021/03/26 06:25:44;;;;;;;;;;;;;;;10.11;47.36;101520.63;5095516;28;19936;-82
2021/03/26 06:28:36;;;;;;;;;;;;;;;10.25;47.08;101520.78;5110213;28;19916;-84
2021/03/26 06:31:43;;;;;;;;;;;;;;;10.41;47.03;101522.19;5096563;28;19920;-81
2021/03/26 06:34:51;;;;;;;;;;;;;;;10.32;47.76;101536.69;5121532;27;19916;-81
2021/03/26 06:37:44;;;;;;;;;;;;;;;10.55;47.03;101538.56;5124904;28;19924;-83
2021/03/26 06:40:50;;;;;;;;;;;;;;;10.67;46.27;101534.28;5132503;28;20323;-83
2021/03/26 06:43:50;;;;;;;;;;;;;;;10.86;45.85;101541.63;5107025;28;19916;-84
2021/03/26 06:46:53;;;;;;;;;;;;;;;11.04;45.34;101544.28;5131611;28;19916;-83
2021/03/26 06:49:57;;;;;;;;;;;;;;;11.14;45.00;101543.31;5133235;28;19915;-83
2021/03/26 06:52:57;;;;;;;;;;;;;;;11.22;45.50;101550.81;5132984;28;19919;-83
2021/03/26 06:56:02;;;;;;;;;;;;;;;11.26;45.33;101548.28;5133752;28;19916;-83
2021/03/26 06:59:06;;;;;;;;;;;;;;;11.48;44.73;101548.41;5124623;28;19919;-84
2021/03/26 07:01:51;;;;;;;;;;;;;;;11.69;45.18;101560.53;5132873;28;19915;-84
2021/03/26 07:04:38;;;;;;;;;;;;;;;11.76;45.23;101554.75;5120829;27;19916;-84
2021/03/26 07:07:43;;;;;;;;;;;;;;;11.63;45.78;101553.56;5133621;28;20193;-83
2021/03/26 07:10:34;;;;;;;;;;;;;;;11.94;45.16;101556.53;5126596;28;19916;-83
2021/03/26 07:13:30;;;;;;;;;;;;;;;12.04;45.00;101555.56;5123627;28;19928;-84
2021/03/26 07:16:38;;;;;;;;;;;;;;;12.10;44.80;101563.31;5126899;28;19915;-84
2021/03/26 07:19:41;;;;;;;;;;;;;;;12.03;45.61;101565.66;5104941;28;19916;-83
2021/03/26 07:22:28;;;;;;;;;;;;;;;12.04;45.76;101564.50;5124107;28;20371;-82
2021/03/26 07:25:17;;;;;;;;;;;;;;;12.19;45.93;101572.38;5122759;28;19923;-83
2021/03/26 07:28:01;;;;;;;;;;;;;;;12.18;45.93;101565.34;5125555;28;20325;-84
2021/03/26 07:30:58;;;;;;;;;;;;;;;12.24;45.87;101574.22;5123430;28;19916;-84
2021/03/26 07:33:43;;;;;;;;;;;;;;;12.36;45.54;101577.22;5125321;28;19920;-84
2021/03/26 07:36:33;;;;;;;;;;;;;;;12.50;45.69;101579.91;5125621;28;19916;-87
2021/03/26 07:39:24;;;;;;;;;;;;;;;12.58;46.02;101579.19;5104769;28;20303;-82
2021/03/26 07:42:27;;;;;;;;;;;;;;;12.66;46.07;101579.25;5119222;28;19919;-83
2021/03/26 07:45:20;;;;;;;;;;;;;;;12.72;45.59;101586.22;5121826;28;19916;-84
2021/03/26 07:48:12;;;;;;;;;;;;;;;12.69;45.65;101591.50;5122938;28;19916;-84
2021/03/26 07:51:03;;;;;;;;;;;;;;;12.63;45.50;101592.72;5126182;28;20666;-83
2021/03/26 07:54:07;;;;;;;;;;;;;;;12.64;45.75;101591.59;5125178;28;20339;-83
2021/03/26 07:57:11;;;;;;;;;;;;;;;12.73;46.32;101606.94;5120922;28;19916;-84
2021/03/26 08:00:12;;;;;;;;;;;;;;;13.02;45.70;101598.34;5125168;28;19915;-84
2021/03/26 08:03:02;;;;;;;;;;;;;;;13.21;45.24;101603.63;5122543;28;19915;-85
2021/03/26 08:05:56;;;;;;;;;;;;;;;13.15;45.53;101602.97;5125666;28;20403;-84
2021/03/26 08:09:00;;;;;;;;;;;;;;;13.20;45.39;101602.03;5122723;28;19916;-83
2021/03/26 08:11:53;;;;;;;;;;;;;;;13.40;44.40;101603.47;5125476;28;19920;-82
2021/03/26 08:14:47;;;;;;;;;;;;;;;13.45;44.17;101606.88;5125721;28;19916;-85
2021/03/26 08:17:41;;;;;;;;;;;;;;;13.72;43.39;101611.34;5127149;28;19916;-85
2021/03/26 08:20:37;;;;;;;;;;;;;;;13.73;43.10;101614.88;5137224;22;19924;-80
2021/03/26 08:23:40;;;;;;;;;;;;;;;13.84;42.84;101611.56;5094706;28;19920;-81
2021/03/26 08:26:25;;;;;;;;;;;;;;;13.87;43.04;101612.84;5084439;28;19916;-81
2021/03/26 08:29:30;;;;;;;;;;;;;;;14.01;42.67;101613.56;5093875;28;20395;-81
2021/03/26 08:32:40;;;;;;;;;;;;;;;14.20;42.47;101616.03;5097685;28;20395;-82
2021/03/26 08:35:32;;;;;;;;;;;;;;;14.34;42.47;101620.25;5116848;28;19915;-82
2021/03/26 08:38:27;;;;;;;;;;;;;;;14.38;42.15;101621.25;5113854;28;19915;-82
2021/03/26 08:41:18;;;;;;;;;;;;;;;14.38;41.77;101631.41;5110856;28;19916;-82
2021/03/26 08:44:03;;;;;;;;;;;;;;;14.42;41.71;101625.00;5119494;28;19923;-82
2021/03/26 08:46:49;;;;;;;;;;;;;;;14.53;42.03;101634.50;5119963;28;19916;-81
2021/03/26 08:49:47;;;;;;;;;;;;;;;14.84;40.62;101633.56;5116029;28;19923;-81
2021/03/26 08:52:31;;;;;;;;;;;;;;;14.91;40.19;101636.63;5115214;28;19920;-83
2021/03/26 08:55:34;;;;;;;;;;;;;;;15.03;39.94;101645.03;5111143;28;19915;-76
2021/03/26 08:58:23;;;;;;;;;;;;;;;15.06;39.11;101649.84;5112194;27;19916;-80
2021/03/26 09:01:10;;;;;;;;;;;;;;;15.19;38.47;101648.88;5110894;28;19924;-80
2021/03/26 09:04:12;;;;;;;;;;;;;;;15.20;37.50;101649.69;5116000;28;19915;-81
2021/03/26 09:06:57;;;;;;;;;;;;;;;15.33;36.59;101662.44;5113638;28;19916;-80
2021/03/26 09:10:06;;;;;;;;;;;;;;;15.39;36.93;101661.91;5112793;28;19916;-81
2021/03/26 09:13:04;;;;;;;;;;;;;;;15.50;36.74;101656.09;5116922;28;19919;-81
2021/03/26 09:16:03;;;;;;;;;;;;;;;15.44;36.34;101652.72;5113916;28;19928;-82
2021/03/26 09:18:55;;;;;;;;;;;;;;;15.43;36.05;101655.81;5117205;28;19916;-85
2021/03/26 09:21:44;;;;;;;;;;;;;;;15.63;35.67;101657.88;5112311;28;19916;-86
2021/03/26 09:24:46;;;;;;;;;;;;;;;15.89;34.89;101657.81;5113269;28;19924;-82
2021/03/26 09:27:38;;;;;;;;;;;;;;;15.90;35.01;101651.22;5119364;28;19915;-84
2021/03/26 09:30:43;;;;;;;;;;;;;;;15.90;34.93;101653.94;5117595;28;19916;-85
2021/03/26 09:33:28;;;;;;;;;;;;;;;16.26;33.63;101649.56;5118696;28;20406;-83
2021/03/26 09:36:17;;;;;;;;;;;;;;;16.45;32.77;101651.13;5113840;28;19923;-82
2021/03/26 09:39:07;;;;;;;;;;;;;;;16.42;33.20;101651.75;5120026;28;20302;-83
2021/03/26 09:41:54;;;;;;;;;;;;;;;16.77;32.51;101658.69;5112710;28;19915;-81
2021/03/26 09:44:38;;;;;;;;;;;;;;;16.83;33.03;101656.53;5106185;28;19916;-83
2021/03/26 09:47:46;;;;;;;;;;;;;;;17.07;32.13;101651.97;5113918;28;20325;-83
2021/03/26 09:50:45;;;;;;;;;;;;;;;16.98;32.51;101644.94;5075877;28;19915;-83
2021/03/26 09:53:34;;;;;;;;;;;;;;;16.76;33.72;101639.81;5096112;28;19920;-83
2021/03/26 09:56:45;;;;;;;;;;;;;;;16.71;33.67;101643.53;5114664;28;20371;-84
2021/03/26 09:59:40;;;;;;;;;;;;;;;16.78;33.26;101641.06;5089366;28;19916;-83
2021/03/26 10:02:31;;;;;;;;;;;;;;;17.07;32.67;101640.97;5119489;28;19919;-83
2021/03/26 10:05:27;;;;;;;;;;;;;;;17.36;31.64;101625.53;5115406;28;19916;-81
2021/03/26 10:08:38;;;;;;;;;;;;;;;18.02;30.70;101633.72;5111073;28;19916;-81
2021/03/26 10:11:32;;;;;;;;;;;;;;;19.00;28.24;101629.72;5109052;28;19916;-84
2021/03/26 10:14:37;;;;;;;;;;;;;;;19.23;27.99;101631.59;5110147;28;19919;-82
2021/03/26 10:17:41;;;;;;;;;;;;;;;18.61;28.45;101623.06;5098577;28;19915;-81
2021/03/26 10:20:29;;;;;;;;;;;;;;;18.39;29.53;101613.28;5114319;28;19915;-82
2021/03/26 10:23:36;;;;;;;;;;;;;;;18.01;30.46;101613.66;5113816;28;20436;-82
2021/03/26 10:26:46;;;;;;;;;;;;;;;17.65;31.29;101616.34;5111848;28;19916;-84
2021/03/26 10:29:40;;;;;;;;;;;;;;;17.32;32.19;101608.91;5086141;28;20295;-83
2021/03/26 10:32:30;;;;;;;;;;;;;;;17.60;31.54;101605.56;5113361;28;20295;-85
2021/03/26 10:35:20;;;;;;;;;;;;;;;17.39;32.01;101602.84;5118565;28;20391;-85
2021/03/26 10:38:12;;;;;;;;;;;;;;;17.71;31.51;101593.00;5109616;28;19919;-84
2021/03/26 10:40:59;;;;;;;;;;;;;;;17.73;31.22;101593.44;5111605;28;19916;-81
2021/03/26 10:43:55;;;;;;;;;;;;;;;17.87;30.91;101592.00;5101908;28;19915;-83
2021/03/26 10:46:43;;;;;;;;;;;;;;;17.69;31.15;101587.03;5118804;28;19916;-85
2021/03/26 10:49:34;;;;;;;;;;;;;;;17.83;30.59;101588.28;5091384;28;19916;-85
2021/03/26 10:52:30;;;;;;;;;;;;;;;17.71;30.81;101585.53;5117142;28;19920;-83
2021/03/26 10:55:18;;;;;;;;;;;;;;;17.99;30.61;101587.59;5113595;28;19920;-83
2021/03/26 10:58:15;;;;;;;;;;;;;;;18.10;30.27;101584.06;5109993;28;19916;-83
2021/03/26 11:01:06;;;;;;;;;;;;;;;18.27;30.60;101583.84;5114012;28;20533;-85
2021/03/26 11:04:03;;;;;;;;;;;;;;;18.18;29.89;101580.41;5114333;28;19915;-83
2021/03/26 11:06:52;;;;;;;;;;;;;;;18.16;29.62;101571.69;5116168;28;20287;-82
2021/03/26 11:09:40;;;;;;;;;;;;;;;18.15;30.11;101572.00;5114538;28;19916;-85
2021/03/26 11:12:27;;;;;;;;;;;;;;;18.28;30.28;101568.13;5108094;28;19919;-82
2021/03/26 11:15:12;;;;;;;;;;;;;;;18.41;29.69;101568.88;5118105;28;19916;-84
2021/03/26 11:18:01;;;;;;;;;;;;;;;18.38;29.62;101557.44;5115570;28;19924;-83
2021/03/26 11:20:56;;;;;;;;;;;;;;;18.45;29.59;101562.34;5115516;28;19916;-82
2021/03/26 11:23:41;;;;;;;;;;;;;;;18.65;29.07;101555.88;5122094;28;19916;-82
2021/03/26 11:26:32;;;;;;;;;;;;;;;18.81;29.27;101553.19;5111617;28;19916;-84
2021/03/26 11:29:34;;;;;;;;;;;;;;;18.95;27.74;101552.78;5121349;28;20322;-84
2021/03/26 11:32:27;;;;;;;;;;;;;;;18.84;27.39;101554.47;5118914;28;19919;-81
2021/03/26 11:35:13;;;;;;;;;;;;;;;18.67;28.29;101550.84;5115150;28;19916;-82
2021/03/26 11:37:59;;;;;;;;;;;;;;;18.57;29.23;101542.25;5098795;28;19915;-81
2021/03/26 11:40:48;;;;;;;;;;;;;;;18.49;29.33;101540.44;5118236;28;19919;-84
2021/03/26 11:43:50;;;;;;;;;;;;;;;18.74;29.12;101539.22;5099616;28;19919;-81
2021/03/26 11:46:41;;;;;;;;;;;;;;;18.89;29.45;101543.19;5117689;28;20303;-85
2021/03/26 11:49:32;;;;;;;;;;;;;;;19.10;29.41;101536.28;5116506;28;19916;-83
2021/03/26 11:52:17;;;;;;;;;;;;;;;19.20;28.90;101533.00;5120746;28;19924;-84
2021/03/26 11:55:11;;;;;;;;;;;;;;;19.26;28.78;101528.03;5121133;28;19916;-83
2021/03/26 11:58:02;;;;;;;;;;;;;;;19.39;28.27;101535.09;5121754;28;19916;-81
2021/03/26 12:00:52;;;;;;;;;;;;;;;19.35;28.21;101525.91;5096687;28;19916;-81
2021/03/26 12:03:48;;;;;;;;;;;;;;;19.16;28.44;101515.56;5125085;28;19915;-82
2021/03/26 12:07:03;;;;;;;;;;;;;;;19.33;28.25;101517.19;5121309;28;19916;-83
2021/03/26 12:10:07;;;;;;;;;;;;;;;19.45;28.66;101514.41;5106710;28;19916;-83
2021/03/26 12:13:00;;;;;;;;;;;;;;;19.51;28.35;101517.66;5121457;28;19920;-81
2021/03/26 12:15:54;;;;;;;;;;;;;;;19.59;28.39;101511.19;5122501;28;19920;-87
2021/03/26 12:18:48;;;;;;;;;;;;;;;19.75;27.54;101516.69;5109586;28;20399;-86
2021/03/26 12:21:51;;;;;;;;;;;;;;;19.78;26.91;101513.22;5115632;28;20082;-87
2021/03/26 12:24:38;;;;;;;;;;;;;;;19.82;27.10;101506.63;5121989;28;19916;-84
2021/03/26 12:27:30;;;;;;;;;;;;;;;19.83;27.08;101510.97;5121517;28;19916;-85
2021/03/26 12:30:25;;;;;;;;;;;;;;;19.84;26.36;101503.50;5103634;28;19916;-85
2021/03/26 12:33:20;;;;;;;;;;;;;;;19.82;26.65;101498.34;5115608;28;20326;-86
2021/03/26 12:36:08;;;;;;;;;;;;;;;19.95;26.34;101499.84;5115133;28;19920;-84
2021/03/26 12:39:06;;;;;;;;;;;;;;;20.13;26.46;101486.41;5118706;28;19916;-85
2021/03/26 12:42:09;;;;;;;;;;;;;;;20.06;27.04;101492.56;5113592;28;20307;-76
2021/03/26 12:44:59;;;;;;;;;;;;;;;20.14;26.59;101487.22;5118400;28;19916;-76
2021/03/26 12:47:54;;;;;;;;;;;;;;;20.19;26.68;101484.19;5112191;28;20192;-77
2021/03/26 12:50:47;;;;;;;;;;;;;;;20.17;26.39;101481.78;5096480;28;19915;-76
2021/03/26 12:53:32;;;;;;;;;;;;;;;20.19;26.11;101471.16;5120214;28;19920;-76
2021/03/26 12:56:36;;;;;;;;;;;;;;;20.06;26.64;101473.25;5117159;28;19916;-78
2021/03/26 12:59:36;;;;;;;;;;;;;;;20.21;26.20;101465.28;5119354;28;20383;-77
2021/03/26 13:02:26;;;;;;;;;;;;;;;20.21;26.54;101471.63;5116754;28;20310;-77
2021/03/26 13:05:22;;;;;;;;;;;;;;;20.24;26.59;101461.78;5113406;28;19924;-79
2021/03/26 13:08:19;;;;;;;;;;;;;;;20.29;25.92;101456.78;5116633;28;19916;-77
2021/03/26 13:11:10;;;;;;;;;;;;;;;20.41;25.67;101451.16;5113916;28;19915;-76
2021/03/26 13:14:00;;;;;;;;;;;;;;;20.53;25.53;101454.91;5118226;28;19920;-76
2021/03/26 13:16:52;;;;;;;;;;;;;;;20.54;25.08;101451.78;5116206;28;19916;-77
2021/03/26 13:19:37;;;;;;;;;;;;;;;20.53;25.65;101460.44;5114408;28;19916;-76
2021/03/26 13:22:26;;;;;;;;;;;;;;;20.61;24.82;101451.16;5117953;28;19916;-77
2021/03/26 13:25:19;;;;;;;;;;;;;;;20.52;25.25;101450.56;5110870;28;19924;-78
2021/03/26 13:28:06;;;;;;;;;;;;;;;20.62;25.03;101449.97;5111455;28;19916;-77
2021/03/26 13:30:56;;;;;;;;;;;;;;;20.73;24.90;101437.16;5114746;28;19915;-76
2021/03/26 13:33:46;;;;;;;;;;;;;;;20.68;24.63;101440.22;5112265;28;19920;-76
2021/03/26 13:36:38;;;;;;;;;;;;;;;20.46;25.06;101434.28;5111648;28;19916;-77
2021/03/26 13:39:26;;;;;;;;;;;;;;;20.54;25.28;101437.97;5115613;28;19923;-77
2021/03/26 13:42:34;;;;;;;;;;;;;;;20.60;25.16;101432.94;5113130;28;19916;-75
2021/03/26 13:45:21;;;;;;;;;;;;;;;20.26;25.32;101440.16;5112128;28;19916;-76
2021/03/26 13:48:13;;;;;;;;;;;;;;;20.35;25.72;101427.75;5113846;28;19919;-76
2021/03/26 13:50:57;;;;;;;;;;;;;;;20.50;25.87;101428.81;5112610;28;19920;-77
2021/03/26 13:53:42;;;;;;;;;;;;;;;20.69;24.84;101425.22;5114462;28;19920;-77
2021/03/26 13:56:31;;;;;;;;;;;;;;;20.67;25.00;101422.81;5113973;28;19916;-77
2021/03/26 13:59:32;;;;;;;;;;;;;;;20.90;24.74;101417.31;5113238;28;19920;-76
2021/03/26 14:02:19;;;;;;;;;;;;;;;20.67;25.36;101413.75;5116268;28;19924;-76
2021/03/26 14:05:24;;;;;;;;;;;;;;;20.83;24.63;101408.91;5110869;28;19919;-77
2021/03/26 14:08:16;;;;;;;;;;;;;;;20.86;24.87;101419.22;5117514;28;19915;-76
2021/03/26 14:11:10;;;;;;;;;;;;;;;20.91;24.42;101416.16;5113912;28;19916;-77
2021/03/26 14:14:03;;;;;;;;;;;;;;;20.98;24.21;101407.97;5111260;28;19920;-76
2021/03/26 14:16:54;;;;;;;;;;;;;;;21.03;24.30;101407.66;5116481;28;19916;-78
2021/03/26 14:19:57;;;;;;;;;;;;;;;21.06;24.35;101403.38;5108401;28;19924;-75
2021/03/26 14:22:54;;;;;;;;;;;;;;;21.04;24.26;101409.28;5125103;22;19924;-82
2021/03/26 14:25:39;;;;;;;;;;;;;;;20.96;25.13;101402.03;5120655;28;20319;-82
2021/03/26 14:28:28;;;;;;;;;;;;;;;20.93;24.69;101402.75;5121397;28;19916;-82
2021/03/26 14:31:23;;;;;;;;;;;;;;;20.91;24.68;101397.63;5120494;28;19915;-81
2021/03/26 14:34:28;;;;;;;;;;;;;;;20.86;25.16;101397.13;5122131;28;19920;-81
2021/03/26 14:37:19;;;;;;;;;;;;;;;21.07;25.09;101403.03;5122534;28;19916;-84
2021/03/26 14:40:11;;;;;;;;;;;;;;;21.30;25.01;101395.50;5120871;28;19920;-83
2021/03/26 14:42:58;;;;;;;;;;;;;;;21.29;24.53;101393.91;5121388;28;19916;-83
2021/03/26 14:45:45;;;;;;;;;;;;;;;21.02;24.96;101389.50;5122823;28;19915;-83
2021/03/26 14:48:51;;;;;;;;;;;;;;;20.87;24.88;101387.66;5121514;28;19920;-83
2021/03/26 14:51:39;;;;;;;;;;;;;;;20.75;25.56;101393.34;5120909;28;20299;-84
2021/03/26 14:54:26;;;;;;;;;;;;;;;20.64;25.39;101395.13;5120683;28;19920;-85
2021/03/26 14:57:19;;;;;;;;;;;;;;;20.64;25.69;101386.81;5126887;28;19915;-86
2021/03/26 15:00:04;;;;;;;;;;;;;;;20.66;25.61;101387.28;5129494;28;19915;-87